This is the latest recevied weather packets stored in our database for station/object FHDOHA-13. If no packets are shown the sender has not sent any weather packets the latest 10 day(s).
| Time | Temp. | Humidity | Pressure | Rain* | Wind** | Luminosity | Snow |
|---|---|---|---|---|---|---|---|
| 1777708873 | 18.33° C | 43% | 1021.4 hPa | 0 mm | - | - | - |
| 1777707974 | 17.78° C | 42% | 1021.5 hPa | 0 mm | - | - | - |
| 1777707074 | 17.78° C | 43% | 1021.5 hPa | 0 mm | - | - | - |
| 1777706173 | 17.78° C | 43% | 1021.5 hPa | 0 mm | - | - | - |
| 1777705273 | 17.78° C | 41% | 1021.5 hPa | 0 mm | - | - | - |
| 1777704373 | 21.11° C | 35% | 1021.1 hPa | 0 mm | - | - | - |
| 1777703473 | 21.11° C | 35% | 1021.1 hPa | 0 mm | - | - | - |
| 1777702573 | 21.11° C | 35% | 1021.2 hPa | 0 mm | - | - | - |
| 1777701673 | 21.11° C | 42% | 1021.1 hPa | 0 mm | - | - | - |
| 1777700773 | 12.22° C | 62% | 1022.1 hPa | 0 mm | - | - | - |
| 1777699873 | 12.22° C | 62% | 1022.1 hPa | 0 mm | - | - | - |
| 1777698973 | 11.67° C | 63% | 1022.1 hPa | 0 mm | - | - | - |
| 1777698073 | 10.56° C | 65% | 1022.2 hPa | 0 mm | - | - | - |
| 1777697173 | 10.56° C | 65% | 1022.2 hPa | 0 mm | - | - | - |
| 1777696273 | 10° C | 66% | 1022.3 hPa | 0 mm | - | - | - |
| 1777695373 | 10.56° C | 65% | 1022.3 hPa | 0 mm | - | - | - |
| 1777694473 | 10.56° C | 65% | 1022.2 hPa | 0 mm | - | - | - |
| 1777693573 | 10.56° C | 66% | 1022.2 hPa | 0 mm | - | - | - |
| 1777692673 | 10.56° C | 67% | 1022.3 hPa | 0 mm | - | - | - |
| 1777691773 | 10.56° C | 67% | 1022.3 hPa | 0 mm | - | - | - |
| 1777690873 | 10.56° C | 67% | 1023.3 hPa | 0 mm | - | - | - |
| 1777689973 | 10.56° C | 67% | 1023.3 hPa | 0 mm | - | - | - |
| 1777689073 | 10.56° C | 66% | 1023.2 hPa | 0 mm | - | - | - |
| 1777688173 | 11.11° C | 66% | 1023.2 hPa | 0 mm | - | - | - |
| 1777687273 | 11.11° C | 64% | 1023.2 hPa | 0 mm | - | - | - |
* Rain latest hour (hover to see other rain measurements)
** Current wind speed in m/s (hover to see current wind gust speed)